Time;durP1;ratioP1;P1;durP2;ratioP2;P2;SDS_P1;SDS_P2;PMS_P1;PMS_P2;Temp;Humidity;BMP_temperature;BMP_pressure;BME280_temperature;BME280_humidity;BME280_pressure;Samples;Min_cycle;Max_cycle;Signal;HPM_P1;HPM_P2
2021/01/21 00:01:41;;;;;;;15.35;6.03;;;6.50;84.10;;;;;;4994337;28;20049;-81
2021/01/21 00:04:07;;;;;;;74.63;30.70;;;6.50;84.00;;;;;;4994643;28;20054;-82
2021/01/21 00:06:34;;;;;;;59.08;27.80;;;6.40;84.00;;;;;;4996653;28;20030;-82
2021/01/21 00:09:08;;;;;;;34.58;18.33;;;6.30;84.20;;;;;;5001859;28;20475;-82
2021/01/21 00:11:34;;;;;;;55.00;26.90;;;6.30;84.70;;;;;;4977005;28;20038;-82
2021/01/21 00:14:00;;;;;;;59.28;31.92;;;6.30;84.50;;;;;;4995091;28;20022;-82
2021/01/21 00:16:27;;;;;;;23.60;11.93;;;6.40;84.60;;;;;;5000452;28;20042;-79
2021/01/21 00:18:53;;;;;;;83.28;38.70;;;6.40;84.20;;;;;;5006097;28;20022;-82
2021/01/21 00:21:19;;;;;;;32.80;17.17;;;6.50;83.10;;;;;;4996696;28;20034;-82
2021/01/21 00:23:45;;;;;;;51.78;25.10;;;6.60;83.10;;;;;;4993161;28;20057;-82
2021/01/21 00:26:11;;;;;;;79.22;41.88;;;6.60;82.40;;;;;;4992653;28;20053;-81
2021/01/21 00:28:38;;;;;;;54.70;27.45;;;6.60;82.30;;;;;;4993336;28;20054;-82
2021/01/21 00:31:04;;;;;;;29.08;14.20;;;6.60;82.20;;;;;;4994571;28;20073;-81
2021/01/21 00:33:30;;;;;;;42.28;20.50;;;6.70;81.70;;;;;;4994121;28;20037;-80
2021/01/21 00:35:56;;;;;;;52.65;27.55;;;6.60;81.70;;;;;;4994588;28;20034;-81
2021/01/21 00:38:22;;;;;;;36.22;18.08;;;6.70;82.00;;;;;;4994814;28;20034;-82
2021/01/21 00:40:49;;;;;;;48.90;22.42;;;6.70;82.00;;;;;;4995130;28;20522;-81
2021/01/21 00:43:15;;;;;;;63.53;30.85;;;6.60;81.80;;;;;;4996412;28;20045;-82
2021/01/21 00:45:42;;;;;;;105.22;45.60;;;6.60;81.80;;;;;;4976436;28;20392;-82
2021/01/21 00:48:09;;;;;;;70.65;32.45;;;6.70;81.70;;;;;;4994456;28;20046;-82
2021/01/21 00:50:35;;;;;;;27.40;12.60;;;6.80;81.30;;;;;;4975914;28;20063;-81
2021/01/21 00:53:01;;;;;;;182.90;78.93;;;6.80;81.40;;;;;;5002228;28;20030;-82
2021/01/21 00:55:27;;;;;;;93.80;42.85;;;6.80;80.70;;;;;;4992113;28;20372;-79
2021/01/21 00:57:54;;;;;;;57.35;26.20;;;6.80;80.50;;;;;;4991625;28;20047;-80
2021/01/21 01:00:20;;;;;;;232.27;88.15;;;6.90;80.00;;;;;;4994951;28;20518;-80
2021/01/21 01:02:49;;;;;;;134.95;52.00;;;7.10;79.10;;;;;;4992772;28;20047;-82
2021/01/21 01:05:15;;;;;;;109.78;44.05;;;7.10;78.60;;;;;;4992062;28;20050;-82
2021/01/21 01:07:45;;;;;;;105.30;45.72;;;7.10;78.70;;;;;;4991654;28;20392;-82
2021/01/21 01:10:13;;;;;;;219.55;91.25;;;7.10;78.70;;;;;;4991904;28;20053;-82
2021/01/21 01:12:40;;;;;;;139.98;56.60;;;7.10;78.10;;;;;;4991813;28;20046;-81
2021/01/21 01:15:08;;;;;;;94.53;40.80;;;7.20;77.70;;;;;;4992300;28;20046;-81
2021/01/21 01:17:36;;;;;;;70.47;31.00;;;7.30;77.40;;;;;;4992969;28;20054;-81
2021/01/21 01:20:04;;;;;;;314.92;122.50;;;7.30;77.50;;;;;;4993707;28;20049;-82
2021/01/21 01:22:31;;;;;;;140.40;56.83;;;7.30;77.20;;;;;;4983266;28;20484;-81
2021/01/21 01:24:58;;;;;;;278.10;106.55;;;7.30;77.30;;;;;;5012971;28;20034;-82
2021/01/21 01:27:24;;;;;;;151.70;62.15;;;7.30;77.30;;;;;;4993362;28;20046;-82
2021/01/21 01:29:50;;;;;;;125.18;50.80;;;7.20;77.40;;;;;;4994073;28;20045;-82
2021/01/21 01:32:17;;;;;;;91.85;37.88;;;7.20;77.10;;;;;;4995548;28;20034;-81
2021/01/21 01:34:47;;;;;;;49.83;23.33;;;7.20;78.10;;;;;;4993088;28;20030;-82
2021/01/21 01:37:17;;;;;;;263.63;110.82;;;7.10;77.90;;;;;;4992518;28;20037;-82
2021/01/21 01:39:52;;;;;;;110.10;48.00;;;7.10;78.50;;;;;;4992436;28;20042;-82
2021/01/21 01:42:33;;;;;;;;;;;7.10;77.80;;;;;;4978299;28;20042;-81
2021/01/21 01:45:00;;;;;;;82.78;34.60;;;7.20;77.90;;;;;;4992777;28;19962;-81
2021/01/21 01:47:27;;;;;;;88.82;36.17;;;7.10;77.80;;;;;;4992869;28;20046;-79
2021/01/21 01:49:58;;;;;;;32.45;14.48;;;7.10;77.90;;;;;;4993194;28;20034;-82
2021/01/21 01:52:26;;;;;;;28.75;13.73;;;7.10;78.30;;;;;;4993221;28;20041;-81
2021/01/21 01:55:20;;;;;;;65.97;29.85;;;7.10;78.60;;;;;;4989723;28;20050;-81
2021/01/21 01:57:58;;;;;;;20.05;11.23;;;7.10;78.50;;;;;;4975226;28;20030;-80
2021/01/21 02:00:37;;;;;;;33.30;16.15;;;7.00;78.80;;;;;;4991223;28;20038;-82
2021/01/21 02:03:05;;;;;;;7.03;3.40;;;7.00;78.80;;;;;;4993020;28;20034;-82
2021/01/21 02:05:36;;;;;;;14.07;6.43;;;7.00;79.20;;;;;;4974612;28;20042;-80
2021/01/21 02:08:02;;;;;;;9.10;4.82;;;7.10;78.30;;;;;;4992112;28;20053;-81
2021/01/21 02:10:32;;;;;;;7.68;4.55;;;7.10;78.10;;;;;;4974447;28;20054;-79
2021/01/21 02:13:11;;;;;;;11.05;5.50;;;7.20;77.40;;;;;;4981088;28;20103;-81
2021/01/21 02:16:15;;;;;;;7.90;5.45;;;7.30;76.80;;;;;;4993232;28;20046;-80
2021/01/21 02:18:42;;;;;;;8.48;4.57;;;7.20;76.60;;;;;;4992367;28;20376;-80
2021/01/21 02:21:44;;;;;;;3.50;2.38;;;7.30;76.20;;;;;;4991849;28;20053;-81
2021/01/21 02:24:32;;;;;;;10.48;5.47;;;7.30;76.20;;;;;;4975625;28;20396;-82
2021/01/21 02:27:04;;;;;;;10.13;4.68;;;7.30;76.00;;;;;;4975543;28;20050;-81
2021/01/21 02:29:37;;;;;;;5.80;2.85;;;7.20;76.10;;;;;;4974958;28;20035;-80
2021/01/21 02:32:09;;;;;;;;;;;7.30;75.70;;;;;;4967008;28;20038;-82
2021/01/21 02:35:09;;;;;;;5.38;2.38;;;7.30;75.70;;;;;;4975033;28;19924;-84
2021/01/21 02:37:43;;;;;;;4.88;2.83;;;7.30;74.90;;;;;;4991541;28;20049;-81
2021/01/21 02:40:14;;;;;;;5.45;2.33;;;7.40;73.90;;;;;;4974926;28;20391;-82
2021/01/21 02:42:55;;;;;;;6.57;2.70;;;7.50;73.80;;;;;;4975005;28;20368;-80
2021/01/21 02:45:24;;;;;;;3.65;1.95;;;7.50;73.60;;;;;;4990565;28;20049;-81
2021/01/21 02:47:57;;;;;;;5.38;1.98;;;7.40;73.70;;;;;;4991141;28;20407;-82
2021/01/21 02:50:39;;;;;;;6.75;3.13;;;7.50;73.50;;;;;;4974544;28;20038;-81
2021/01/21 02:53:06;;;;;;;15.63;7.45;;;7.60;72.80;;;;;;4995655;28;20046;-81
2021/01/21 02:55:53;;;;;;;7.13;3.08;;;7.50;73.10;;;;;;4978661;28;20480;-80
2021/01/21 02:58:42;;;;;;;5.10;2.47;;;7.50;73.00;;;;;;4980922;28;20042;-81
2021/01/21 03:01:15;;;;;;;2.80;1.58;;;7.60;73.10;;;;;;4979103;28;20045;-82
2021/01/21 03:03:42;;;;;;;3.60;1.70;;;7.60;72.90;;;;;;4996044;28;20057;-80
2021/01/21 03:06:14;;;;;;;3.25;1.40;;;7.50;73.60;;;;;;4996539;28;20034;-82
2021/01/21 03:08:41;;;;;;;4.60;2.75;;;7.50;73.20;;;;;;4982929;28;20042;-82
2021/01/21 03:11:13;;;;;;;5.72;2.47;;;7.50;73.00;;;;;;4993985;28;20053;-82
2021/01/21 03:13:45;;;;;;;6.10;2.97;;;7.40;73.40;;;;;;4978882;28;20476;-82
2021/01/21 03:16:13;;;;;;;6.07;2.63;;;7.40;73.20;;;;;;4995614;28;20057;-82
2021/01/21 03:18:40;;;;;;;3.30;1.77;;;7.40;73.50;;;;;;4993560;28;20487;-82
2021/01/21 03:21:09;;;;;;;3.90;1.50;;;7.30;73.90;;;;;;4993992;28;20042;-81
2021/01/21 03:23:44;;;;;;;5.60;2.75;;;7.30;74.50;;;;;;4983487;28;20053;-81
2021/01/21 03:26:15;;;;;;;5.05;1.80;;;7.10;74.50;;;;;;4978270;28;20046;-82
2021/01/21 03:28:52;;;;;;;5.88;2.58;;;7.10;74.90;;;;;;4977582;28;20042;-82
2021/01/21 03:31:19;;;;;;;3.25;1.30;;;7.00;75.40;;;;;;4993770;28;20407;-82
2021/01/21 03:33:45;;;;;;;4.60;1.17;;;6.80;76.70;;;;;;4977035;28;20038;-81
2021/01/21 03:36:11;;;;;;;2.70;1.20;;;6.80;76.50;;;;;;4985535;28;20038;-81
2021/01/21 03:38:37;;;;;;;3.22;1.02;;;6.90;76.40;;;;;;4977588;28;20043;-79
2021/01/21 03:41:22;;;;;;;3.40;1.00;;;7.00;76.30;;;;;;4995587;28;20038;-81
2021/01/21 03:44:01;;;;;;;4.53;1.02;;;7.10;75.70;;;;;;4993641;28;20042;-81
2021/01/21 03:46:29;;;;;;;2.35;0.95;;;7.20;74.70;;;;;;4993764;28;20499;-79
2021/01/21 03:48:56;;;;;;;4.18;1.50;;;7.30;74.70;;;;;;4995452;28;20046;-81
2021/01/21 03:51:45;;;;;;;2.45;0.82;;;7.30;74.50;;;;;;4986396;28;20046;-82
2021/01/21 03:54:34;;;;;;;1.60;0.73;;;7.30;74.50;;;;;;4994197;28;20046;-82
2021/01/21 03:57:08;;;;;;;4.40;1.00;;;7.40;74.50;;;;;;4987309;28;20039;-81
2021/01/21 03:59:35;;;;;;;2.55;0.88;;;7.50;74.10;;;;;;4977176;28;20075;-79
2021/01/21 04:02:01;;;;;;;5.15;0.98;;;7.60;73.80;;;;;;4994884;28;20042;-81
2021/01/21 04:04:28;;;;;;;2.13;1.00;;;7.60;73.20;;;;;;4976268;28;20038;-80
2021/01/21 04:06:55;;;;;;;2.35;1.20;;;7.70;72.70;;;;;;4977878;28;20113;-83
2021/01/21 04:09:30;;;;;;;2.78;0.70;;;7.80;72.30;;;;;;4976918;28;20046;-79
2021/01/21 04:12:11;;;;;;;4.60;1.55;;;7.90;71.90;;;;;;4970471;28;20499;-81
2021/01/21 04:14:37;;;;;;;3.65;1.38;;;8.00;70.90;;;;;;4984548;28;20042;-81
2021/01/21 04:17:04;;;;;;;6.53;1.60;;;8.00;70.50;;;;;;4977124;28;20049;-81
2021/01/21 04:19:32;;;;;;;3.55;1.23;;;8.10;70.20;;;;;;4976265;28;20400;-78
2021/01/21 04:21:59;;;;;;;3.22;1.55;;;8.00;70.60;;;;;;4992976;28;20396;-82
2021/01/21 04:24:28;;;;;;;3.60;1.33;;;8.00;71.40;;;;;;4995267;28;20034;-82
2021/01/21 04:27:00;;;;;;;2.83;1.40;;;7.90;70.90;;;;;;4995319;28;20042;-81
2021/01/21 04:29:38;;;;;;;2.92;1.30;;;7.80;71.00;;;;;;4993539;28;20495;-81
2021/01/21 04:32:05;;;;;;;2.88;1.45;;;7.70;71.40;;;;;;4976598;28;20054;-81
2021/01/21 04:34:31;;;;;;;3.83;2.00;;;7.60;72.00;;;;;;4986311;28;20053;-79
2021/01/21 04:36:58;;;;;;;3.10;1.50;;;7.60;71.90;;;;;;4976850;28;20042;-82
2021/01/21 04:39:53;;;;;;;5.10;1.70;;;7.60;72.50;;;;;;4993753;28;20931;-82
2021/01/21 04:42:23;;;;;;;3.90;1.60;;;7.60;72.60;;;;;;4976938;28;20053;-82
2021/01/21 04:44:50;;;;;;;4.18;1.48;;;7.70;71.90;;;;;;4992387;28;20057;-82
2021/01/21 04:47:25;;;;;;;6.55;1.83;;;7.70;72.10;;;;;;4992829;28;20049;-81
2021/01/21 04:50:10;;;;;;;4.38;1.77;;;7.70;71.80;;;;;;5001187;28;20053;-82
2021/01/21 04:52:46;;;;;;;5.85;2.05;;;7.80;71.70;;;;;;4965641;28;20037;-82
2021/01/21 04:55:25;;;;;;;3.85;1.95;;;7.80;71.60;;;;;;4991751;28;20400;-82
2021/01/21 04:58:44;;;;;;;5.28;1.70;;;7.80;71.50;;;;;;4993854;28;20034;-80
2021/01/21 05:01:10;;;;;;;4.28;1.77;;;7.90;71.30;;;;;;4976690;28;20042;-79
2021/01/21 05:03:37;;;;;;;3.72;1.67;;;8.00;71.30;;;;;;4991590;28;20039;-81
2021/01/21 05:06:23;;;;;;;2.97;1.38;;;8.00;71.00;;;;;;4993905;28;20049;-81
2021/01/21 05:08:55;;;;;;;3.40;1.90;;;8.00;70.80;;;;;;4991608;28;20126;-79
2021/01/21 05:11:28;;;;;;;4.05;1.67;;;8.00;70.80;;;;;;4993780;28;20059;-80
2021/01/21 05:14:21;;;;;;;4.75;1.70;;;8.00;71.00;;;;;;4987286;28;20391;-80
2021/01/21 05:17:05;;;;;;;5.35;1.92;;;7.80;71.30;;;;;;4994074;28;20042;-81
2021/01/21 05:19:52;;;;;;;3.08;1.60;;;7.70;71.80;;;;;;4962766;28;20030;-80
2021/01/21 05:22:25;;;;;;;5.78;1.98;;;7.70;72.20;;;;;;4983993;28;20038;-80
2021/01/21 05:25:14;;;;;;;5.40;2.13;;;7.70;72.50;;;;;;4959430;28;20046;-81
2021/01/21 05:27:58;;;;;;;3.33;1.50;;;7.70;72.80;;;;;;4991551;28;20041;-81
2021/01/21 05:30:48;;;;;;;;;;;7.60;73.00;;;;;;4982742;28;20065;-81
2021/01/21 05:33:16;;;;;;;9.63;5.30;;;7.60;73.00;;;;;;4976263;28;19922;-81
2021/01/21 05:36:06;;;;;;;35.53;16.90;;;7.60;72.90;;;;;;4976332;28;20504;-81
2021/01/21 05:38:40;;;;;;;16.35;8.35;;;7.70;72.50;;;;;;4976811;28;20038;-78
2021/01/21 05:41:26;;;;;;;39.60;19.95;;;7.70;72.70;;;;;;4993512;28;20038;-81
2021/01/21 05:44:08;;;;;;;49.60;24.63;;;7.70;72.60;;;;;;4983282;28;20065;-81
2021/01/21 05:47:02;;;;;;;8.35;4.10;;;7.80;72.60;;;;;;4975563;28;20061;-80
2021/01/21 05:49:29;;;;;;;32.90;17.75;;;7.90;72.10;;;;;;4988253;28;20487;-79
2021/01/21 05:52:03;;;;;;;8.50;4.68;;;8.00;71.90;;;;;;4975941;28;20046;-81
2021/01/21 05:54:31;;;;;;;27.95;13.45;;;7.90;72.40;;;;;;4995564;28;20057;-81
2021/01/21 05:57:09;;;;;;;20.88;11.00;;;7.90;72.10;;;;;;4985239;28;20400;-81
2021/01/21 05:59:36;;;;;;;8.75;5.38;;;7.90;72.00;;;;;;4999627;28;20026;-81
2021/01/21 06:02:18;;;;;;;20.77;11.27;;;8.00;71.50;;;;;;4991650;28;20388;-82
2021/01/21 06:04:51;;;;;;;14.75;7.88;;;8.10;71.50;;;;;;4992154;28;20050;-81
2021/01/21 06:07:21;;;;;;;7.85;4.03;;;8.00;71.50;;;;;;4993420;28;20042;-82
2021/01/21 06:09:48;;;;;;;7.07;4.07;;;8.00;71.60;;;;;;4990013;28;20047;-81
2021/01/21 06:12:15;;;;;;;12.85;7.00;;;8.10;71.50;;;;;;4975108;28;20034;-82
2021/01/21 06:14:42;;;;;;;30.20;13.55;;;8.20;71.10;;;;;;4991776;28;20045;-82
2021/01/21 06:17:08;;;;;;;8.65;4.30;;;8.20;71.30;;;;;;4992268;28;20050;-82
2021/01/21 06:19:54;;;;;;;24.15;14.63;;;8.10;71.10;;;;;;4990546;28;20323;-82
2021/01/21 06:22:27;;;;;;;18.02;11.23;;;8.20;70.70;;;;;;4993370;28;20044;-82
2021/01/21 06:25:01;;;;;;;33.40;22.27;;;8.30;70.60;;;;;;4975138;28;20046;-80
2021/01/21 06:27:29;;;;;;;19.52;14.98;;;8.30;70.60;;;;;;5011849;28;20048;-81
2021/01/21 06:29:58;;;;;;;5.53;3.63;;;8.30;70.70;;;;;;4992959;28;20038;-79
2021/01/21 06:32:32;;;;;;;6.78;2.85;;;8.30;71.20;;;;;;4992435;28;20054;-80
2021/01/21 06:35:05;;;;;;;3.53;2.67;;;8.30;70.90;;;;;;4992403;28;20041;-80
2021/01/21 06:37:37;;;;;;;6.07;1.40;;;8.30;71.10;;;;;;4992802;28;20046;-80
2021/01/21 06:40:11;;;;;;;4.60;2.60;;;8.40;70.90;;;;;;4992023;28;20054;-78
2021/01/21 06:42:50;;;;;;;3.92;2.10;;;8.40;71.20;;;;;;4992305;28;20034;-79
2021/01/21 06:45:17;;;;;;;2.80;1.55;;;8.40;70.80;;;;;;4993852;28;20041;-79
2021/01/21 06:47:43;;;;;;;5.00;1.10;;;8.50;71.10;;;;;;5000032;28;20495;-80
2021/01/21 06:50:10;;;;;;;4.53;1.65;;;8.60;70.80;;;;;;4992347;28;20038;-80
2021/01/21 06:52:38;;;;;;;1.77;0.75;;;8.70;70.90;;;;;;4992184;28;20030;-79
2021/01/21 06:55:08;;;;;;;4.65;1.10;;;8.70;70.80;;;;;;4991885;28;20050;-81
2021/01/21 06:57:34;;;;;;;2.30;0.80;;;8.90;70.90;;;;;;5011769;28;20037;-81
2021/01/21 07:00:09;;;;;;;3.63;1.60;;;9.00;71.90;;;;;;4996134;28;20038;-78
2021/01/21 07:02:49;;;;;;;2.00;0.90;;;9.10;72.10;;;;;;4995123;28;20025;-77
2021/01/21 07:05:19;;;;;;;1.35;0.80;;;9.20;73.70;;;;;;5008929;28;20022;-78
2021/01/21 07:07:55;;;;;;;2.38;0.93;;;9.20;74.40;;;;;;4992471;28;20037;-78
2021/01/21 07:10:23;;;;;;;3.17;0.70;;;9.40;77.50;;;;;;4992005;28;20042;-78
2021/01/21 07:12:50;;;;;;;2.03;0.93;;;9.30;78.30;;;;;;4991255;28;20373;-77
2021/01/21 07:15:17;;;;;;;5.32;0.93;;;9.30;79.30;;;;;;4992008;28;20041;-78
2021/01/21 07:17:43;;;;;;;3.70;1.25;;;9.40;77.20;;;;;;4991887;28;20035;-78
2021/01/21 07:20:10;;;;;;;1.80;0.80;;;9.50;78.60;;;;;;4992080;28;20053;-78
2021/01/21 07:22:44;;;;;;;5.68;2.40;;;9.50;78.50;;;;;;4992482;28;20042;-77
2021/01/21 07:25:13;;;;;;;23.50;10.68;;;9.60;77.50;;;;;;4992197;28;20479;-80
2021/01/21 07:27:41;;;;;;;33.22;14.15;;;9.60;77.90;;;;;;4991579;28;20072;-77
2021/01/21 07:30:21;;;;;;;17.90;7.45;;;9.60;78.00;;;;;;4993732;28;20026;-77
2021/01/21 07:32:49;;;;;;;7.47;3.50;;;9.50;79.40;;;;;;4975384;28;20049;-77
2021/01/21 07:35:33;;;;;;;17.48;8.60;;;9.60;78.10;;;;;;4992425;28;20031;-78
2021/01/21 07:37:59;;;;;;;10.30;2.97;;;9.70;78.50;;;;;;4992346;28;20033;-78
2021/01/21 07:40:46;;;;;;;16.75;8.07;;;9.70;78.80;;;;;;4996058;28;20042;-78
2021/01/21 07:43:12;;;;;;;12.27;5.05;;;9.60;78.90;;;;;;4995620;28;20030;-78
2021/01/21 07:45:39;;;;;;;14.57;6.75;;;9.70;79.30;;;;;;4995556;28;20034;-78
2021/01/21 07:48:19;;;;;;;10.98;5.07;;;9.60;78.90;;;;;;4996028;28;20030;-77
2021/01/21 07:50:46;;;;;;;6.13;2.63;;;9.60;78.70;;;;;;4995244;28;20053;-78
2021/01/21 07:53:26;;;;;;;8.18;2.42;;;9.70;79.10;;;;;;4990957;28;20396;-78
2021/01/21 07:55:54;;;;;;;5.50;3.13;;;9.60;79.60;;;;;;4995020;28;20041;-77
2021/01/21 07:58:29;;;;;;;2.60;1.90;;;9.50;79.90;;;;;;4995821;28;20490;-77
2021/01/21 08:01:02;;;;;;;3.45;1.27;;;9.60;80.30;;;;;;4995166;28;20251;-77
2021/01/21 08:03:32;;;;;;;1.85;1.13;;;9.50;81.00;;;;;;4995604;28;20030;-78
2021/01/21 08:06:10;;;;;;;4.45;1.27;;;9.70;80.40;;;;;;5004965;28;20369;-77
2021/01/21 08:08:38;;;;;;;3.88;1.88;;;9.70;81.00;;;;;;4994549;28;20518;-77
2021/01/21 08:11:06;;;;;;;3.03;1.13;;;9.70;81.60;;;;;;4995444;28;20034;-77
2021/01/21 08:13:33;;;;;;;1.40;0.82;;;9.70;82.00;;;;;;4995109;28;20387;-77
2021/01/21 08:16:00;;;;;;;4.90;1.40;;;9.90;81.40;;;;;;4994558;28;20038;-77
2021/01/21 08:18:27;;;;;;;2.45;1.10;;;10.00;81.40;;;;;;4994295;28;20054;-77
2021/01/21 08:20:53;;;;;;;3.53;2.50;;;10.10;81.30;;;;;;4994726;28;20085;-77
2021/01/21 08:23:19;;;;;;;1.65;0.85;;;10.10;81.60;;;;;;4995104;28;20463;-77
2021/01/21 08:25:51;;;;;;;4.32;0.73;;;10.60;80.90;;;;;;4993525;28;20047;-77
2021/01/21 08:28:19;;;;;;;1.30;0.80;;;11.70;78.30;;;;;;4995385;28;20042;-77
2021/01/21 08:30:48;;;;;;;3.55;0.80;;;13.10;72.80;;;;;;4977168;28;20042;-77
2021/01/21 08:33:21;;;;;;;3.67;1.75;;;12.50;72.50;;;;;;4994738;28;20495;-77
2021/01/21 08:36:02;;;;;;;7.00;3.15;;;12.00;74.30;;;;;;4994579;28;20041;-77
2021/01/21 08:38:32;;;;;;;3.38;1.52;;;11.70;77.00;;;;;;4994884;28;20034;-77
2021/01/21 08:40:59;;;;;;;2.83;0.88;;;11.60;77.60;;;;;;4994502;28;20038;-77
2021/01/21 08:43:25;;;;;;;2.55;0.90;;;11.70;77.50;;;;;;4994602;28;20034;-77
2021/01/21 08:45:52;;;;;;;1.60;0.57;;;11.70;77.30;;;;;;4993823;28;20046;-77
2021/01/21 08:48:28;;;;;;;1.90;0.68;;;11.80;78.10;;;;;;4992801;28;20049;-78
2021/01/21 08:50:55;;;;;;;2.72;1.17;;;11.70;77.30;;;;;;4994012;28;20472;-77
2021/01/21 08:53:23;;;;;;;2.65;0.70;;;11.70;78.40;;;;;;4994256;28;20468;-78
2021/01/21 08:55:52;;;;;;;2.97;0.88;;;11.80;77.90;;;;;;4993624;28;20035;-77
2021/01/21 08:58:28;;;;;;;3.53;1.40;;;11.90;80.50;;;;;;4994512;28;20038;-77
2021/01/21 09:01:05;;;;;;;4.07;0.80;;;11.60;84.80;;;;;;4993563;28;20038;-77
2021/01/21 09:03:48;;;;;;;4.57;1.17;;;11.30;88.70;;;;;;4994189;28;20037;-78
2021/01/21 09:06:17;;;;;;;5.38;2.60;;;10.90;91.40;;;;;;4994529;28;20115;-77
2021/01/21 09:08:55;;;;;;;5.15;2.03;;;10.80;92.00;;;;;;4993976;28;20038;-79
2021/01/21 09:11:37;;;;;;;4.60;1.52;;;10.90;92.30;;;;;;4994279;28;20034;-78
2021/01/21 09:14:13;;;;;;;3.97;0.90;;;10.90;93.10;;;;;;4994433;28;20042;-78
2021/01/21 09:16:43;;;;;;;4.72;0.90;;;10.80;93.10;;;;;;4993679;28;20041;-76
2021/01/21 09:19:16;;;;;;;2.08;0.88;;;10.70;94.70;;;;;;4994094;28;20026;-76
2021/01/21 09:22:03;;;;;;;4.10;0.88;;;10.60;95.50;;;;;;4993153;28;20045;-78
2021/01/21 09:24:34;;;;;;;3.40;1.38;;;10.50;96.80;;;;;;4993961;28;20046;-77
2021/01/21 09:27:10;;;;;;;3.33;0.90;;;10.50;97.10;;;;;;4992643;28;20385;-78
2021/01/21 09:29:52;;;;;;;4.72;1.30;;;10.50;98.30;;;;;;4992714;28;20061;-77
2021/01/21 09:32:21;;;;;;;2.90;1.05;;;10.40;99.20;;;;;;4994027;28;20054;-77
2021/01/21 09:34:51;;;;;;;2.22;0.80;;;10.40;99.90;;;;;;4992507;28;20050;-77
2021/01/21 09:37:18;;;;;;;2.88;1.02;;;10.30;99.90;;;;;;4993805;28;20038;-77
2021/01/21 09:39:44;;;;;;;3.53;0.90;;;10.30;99.90;;;;;;4993485;28;20035;-76
2021/01/21 09:42:10;;;;;;;2.70;1.00;;;10.20;99.90;;;;;;4993890;28;20031;-76
2021/01/21 09:44:37;;;;;;;3.58;1.50;;;10.20;99.90;;;;;;4993099;28;20033;-76
2021/01/21 09:47:04;;;;;;;2.47;1.08;;;10.20;99.90;;;;;;4993374;28;20053;-76
2021/01/21 09:49:30;;;;;;;3.90;1.38;;;10.20;99.90;;;;;;4993500;28;20034;-77
2021/01/21 09:51:56;;;;;;;3.13;1.23;;;10.20;99.90;;;;;;4992793;28;20035;-77
2021/01/21 09:54:22;;;;;;;2.20;0.80;;;10.30;99.90;;;;;;4993549;28;20034;-77
2021/01/21 09:56:51;;;;;;;7.80;2.10;;;10.40;99.90;;;;;;4991980;28;20061;-78
2021/01/21 09:59:17;;;;;;;2.72;1.30;;;10.40;99.90;;;;;;4993176;28;20031;-78
2021/01/21 10:01:43;;;;;;;3.55;1.20;;;10.40;99.90;;;;;;4992307;28;20026;-78
2021/01/21 10:04:10;;;;;;;4.35;1.20;;;10.30;99.90;;;;;;4993358;28;20412;-78
2021/01/21 10:06:36;;;;;;;2.60;1.45;;;10.30;99.90;;;;;;4993047;28;20360;-77
2021/01/21 10:09:02;;;;;;;3.53;1.00;;;10.30;99.90;;;;;;4992905;28;20037;-77
2021/01/21 10:11:29;;;;;;;2.10;0.95;;;10.30;99.90;;;;;;4992341;28;20510;-77
2021/01/21 10:13:55;;;;;;;5.15;1.88;;;10.40;99.90;;;;;;4992372;28;20027;-77
2021/01/21 10:16:21;;;;;;;4.63;1.20;;;10.50;99.90;;;;;;4993007;28;20042;-77
2021/01/21 10:18:47;;;;;;;2.17;0.93;;;10.70;99.90;;;;;;4992445;28;20050;-78
2021/01/21 10:21:14;;;;;;;1.98;1.02;;;10.70;99.90;;;;;;4992749;28;20041;-77
2021/01/21 10:23:41;;;;;;;2.55;1.20;;;10.80;99.90;;;;;;4992289;28;20491;-77
2021/01/21 10:26:07;;;;;;;3.10;1.10;;;10.70;99.90;;;;;;4992652;28;20038;-78
2021/01/21 10:28:33;;;;;;;4.15;0.82;;;10.70;99.90;;;;;;4992448;28;20030;-77
2021/01/21 10:30:59;;;;;;;1.67;0.70;;;10.90;99.90;;;;;;4992300;28;20499;-77
2021/01/21 10:33:26;;;;;;;2.45;1.00;;;10.90;99.90;;;;;;4992801;28;20515;-77
2021/01/21 10:35:54;;;;;;;2.97;0.90;;;10.90;99.90;;;;;;4991681;28;20049;-77
2021/01/21 10:38:21;;;;;;;2.50;0.80;;;11.00;99.90;;;;;;4992844;28;20479;-78
2021/01/21 10:40:47;;;;;;;2.45;0.90;;;11.00;99.90;;;;;;4992210;28;20041;-78
2021/01/21 10:43:15;;;;;;;1.58;0.73;;;10.90;99.90;;;;;;4993170;28;20045;-78
2021/01/21 10:45:41;;;;;;;2.10;0.90;;;10.80;99.90;;;;;;4992182;28;20483;-77
2021/01/21 10:48:09;;;;;;;2.67;0.80;;;10.70;99.90;;;;;;4992526;28;20042;-77
2021/01/21 10:50:35;;;;;;;2.40;1.00;;;10.60;99.90;;;;;;4992837;28;20046;-78
2021/01/21 10:53:02;;;;;;;4.78;1.92;;;10.40;99.90;;;;;;4991933;28;20034;-79
2021/01/21 10:55:28;;;;;;;3.17;0.90;;;10.30;99.90;;;;;;4992304;28;20134;-77
2021/01/21 10:57:54;;;;;;;1.70;0.70;;;10.30;99.90;;;;;;4992502;28;20487;-78
2021/01/21 11:00:21;;;;;;;3.78;0.93;;;10.20;99.90;;;;;;4992254;28;20038;-78
2021/01/21 11:02:48;;;;;;;3.28;1.40;;;10.10;99.90;;;;;;4992030;28;20033;-77
2021/01/21 11:05:15;;;;;;;2.97;0.93;;;10.00;99.90;;;;;;4992797;28;20030;-78
2021/01/21 11:07:41;;;;;;;1.55;0.75;;;9.90;99.90;;;;;;4991985;28;20050;-77
2021/01/21 11:10:08;;;;;;;4.18;0.98;;;9.80;99.90;;;;;;4992521;28;20037;-78
2021/01/21 11:12:35;;;;;;;2.20;0.95;;;9.80;99.90;;;;;;4993500;28;20033;-78
2021/01/21 11:15:03;;;;;;;3.15;1.25;;;9.80;99.90;;;;;;4995685;28;20038;-78
2021/01/21 11:17:29;;;;;;;3.15;1.35;;;9.70;99.90;;;;;;4995902;28;20041;-77
2021/01/21 11:19:56;;;;;;;3.55;1.25;;;9.60;99.90;;;;;;4995712;28;20034;-78
2021/01/21 11:22:24;;;;;;;3.42;1.55;;;9.50;99.90;;;;;;4996072;28;20464;-77
2021/01/21 11:24:50;;;;;;;2.63;1.63;;;9.30;99.90;;;;;;4995545;28;20037;-77
2021/01/21 11:27:17;;;;;;;4.93;1.63;;;9.10;99.90;;;;;;4995917;28;20047;-76
2021/01/21 11:29:44;;;;;;;4.00;1.45;;;9.10;99.90;;;;;;4995555;28;20057;-76
2021/01/21 11:32:10;;;;;;;2.63;1.52;;;9.00;99.90;;;;;;4996210;28;20472;-78
2021/01/21 11:34:36;;;;;;;3.33;1.25;;;9.00;99.90;;;;;;4996104;28;20038;-78
2021/01/21 11:37:03;;;;;;;2.55;1.30;;;8.90;99.90;;;;;;4994667;28;20050;-79
2021/01/21 11:39:29;;;;;;;3.10;1.40;;;8.90;99.90;;;;;;4995820;28;20042;-79
2021/01/21 11:41:55;;;;;;;2.67;0.80;;;8.90;99.90;;;;;;4995584;28;20029;-79
2021/01/21 11:44:22;;;;;;;1.48;0.55;;;8.80;99.90;;;;;;4990912;28;20037;-78
2021/01/21 11:46:48;;;;;;;0.85;0.50;;;8.80;99.90;;;;;;4995038;28;20046;-79
2021/01/21 11:49:14;;;;;;;2.42;1.70;;;8.80;99.90;;;;;;4995746;28;20061;-78
2021/01/21 11:51:41;;;;;;;2.70;1.17;;;8.80;99.90;;;;;;4995169;28;20050;-77
2021/01/21 11:54:07;;;;;;;2.90;0.90;;;8.80;99.90;;;;;;4995652;28;20034;-78
2021/01/21 11:56:33;;;;;;;2.05;0.65;;;8.90;99.90;;;;;;4995622;28;20510;-78
2021/01/21 11:59:00;;;;;;;2.72;1.08;;;8.90;99.90;;;;;;4978911;28;20034;-77
2021/01/21 12:01:26;;;;;;;2.13;1.17;;;9.00;99.90;;;;;;4997055;28;20033;-78
2021/01/21 12:03:54;;;;;;;6.63;2.10;;;9.00;99.90;;;;;;4995635;28;20409;-79
2021/01/21 12:06:20;;;;;;;3.05;2.20;;;8.90;99.90;;;;;;4995066;28;20476;-79
2021/01/21 12:08:46;;;;;;;7.70;3.70;;;9.00;99.90;;;;;;4995195;28;20038;-79
2021/01/21 12:11:13;;;;;;;7.28;4.82;;;9.00;99.90;;;;;;4995542;28;20427;-78
2021/01/21 12:13:39;;;;;;;4.53;2.15;;;9.00;99.90;;;;;;4995373;28;20060;-79
2021/01/21 12:16:06;;;;;;;22.85;10.73;;;9.00;99.90;;;;;;4994060;28;20047;-78
2021/01/21 12:18:32;;;;;;;38.45;18.73;;;9.00;99.90;;;;;;4995404;28;20034;-78
2021/01/21 12:21:01;;;;;;;5.68;2.65;;;8.90;99.90;;;;;;4994928;28;20296;-78
2021/01/21 12:23:27;;;;;;;8.25;4.18;;;8.90;99.90;;;;;;4994764;28;20030;-78
2021/01/21 12:25:54;;;;;;;5.10;2.67;;;9.00;99.90;;;;;;4995092;28;20034;-78
2021/01/21 12:28:20;;;;;;;3.00;1.50;;;9.00;99.90;;;;;;5000025;28;20156;-78
2021/01/21 12:30:48;;;;;;;3.38;1.10;;;8.90;99.90;;;;;;4994030;28;20050;-78
2021/01/21 12:33:14;;;;;;;2.85;0.70;;;9.00;99.90;;;;;;4994662;28;20380;-78
2021/01/21 12:35:40;;;;;;;3.78;0.88;;;9.00;99.90;;;;;;4994547;28;20057;-78
2021/01/21 12:38:07;;;;;;;7.80;1.20;;;9.00;99.90;;;;;;4976895;28;20050;-79
2021/01/21 12:40:33;;;;;;;1.48;0.40;;;8.90;99.90;;;;;;4994587;28;20031;-79
2021/01/21 12:42:59;;;;;;;2.42;0.93;;;8.80;99.90;;;;;;4994613;28;20037;-79
2021/01/21 12:45:25;;;;;;;2.42;1.50;;;8.80;99.90;;;;;;4994542;28;20054;-79
2021/01/21 12:47:52;;;;;;;2.22;0.60;;;8.70;99.90;;;;;;4993741;28;20046;-79
2021/01/21 12:50:18;;;;;;;3.05;0.88;;;8.70;99.90;;;;;;4994523;28;20045;-79
2021/01/21 12:52:44;;;;;;;4.07;1.10;;;8.70;99.90;;;;;;4976667;28;20030;-78
2021/01/21 12:55:11;;;;;;;3.33;1.05;;;8.70;99.90;;;;;;4977430;28;20042;-78
2021/01/21 12:57:39;;;;;;;3.30;1.08;;;8.70;99.90;;;;;;4994841;28;20042;-78
2021/01/21 13:00:08;;;;;;;8.57;1.92;;;8.70;99.90;;;;;;4993749;28;20053;-78
2021/01/21 13:02:36;;;;;;;7.85;1.38;;;8.70;99.90;;;;;;4994427;28;20033;-78
2021/01/21 13:05:04;;;;;;;3.30;1.30;;;8.60;99.90;;;;;;4994102;28;20038;-78
2021/01/21 13:07:30;;;;;;;5.28;1.65;;;8.70;99.90;;;;;;4994210;28;20038;-78
2021/01/21 13:09:57;;;;;;;4.53;2.10;;;8.70;99.90;;;;;;4993966;28;20457;-78